Time;durP1;ratioP1;P1;durP2;ratioP2;P2;SDS_P1;SDS_P2;PMS_P1;PMS_P2;Temp;Humidity;BMP_temperature;BMP_pressure;BME280_temperature;BME280_humidity;BME280_pressure;Samples;Min_cycle;Max_cycle;Signal;HPM_P1;HPM_P2
2022/04/08 00:01:30;;;;;;;2.90;2.65;;;;;;;;;;755688;78;26267;-69
2022/04/08 00:02:35;;;;;;;2.83;2.50;;;;;;;;;;749323;79;26356;-70
2022/04/08 00:03:39;;;;;;;2.70;2.60;;;;;;;;;;749685;79;26672;-70
2022/04/08 00:04:46;;;;;;;2.72;2.52;;;;;;;;;;751162;78;26259;-69
2022/04/08 00:05:52;;;;;;;2.65;2.45;;;;;;;;;;775129;76;26241;-72
2022/04/08 00:06:56;;;;;;;2.10;2.00;;;;;;;;;;774930;76;26306;-70
2022/04/08 00:16:49;;;;;;;2.83;2.62;;;;;;;;;;737382;79;26177;-72
2022/04/08 00:21:48;;;;;;;2.55;2.45;;;;;;;;;;768383;77;26183;-69
2022/04/08 00:22:50;;;;;;;2.95;2.75;;;;;;;;;;768552;77;26251;-71
2022/04/08 00:23:59;;;;;;;2.90;2.70;;;;;;;;;;768381;75;26677;-70
2022/04/08 00:25:09;;;;;;;2.90;2.70;;;;;;;;;;768505;77;26356;-69
2022/04/08 00:26:22;;;;;;;2.87;2.67;;;;;;;;;;768434;77;26243;-70
2022/04/08 00:27:26;;;;;;;2.70;2.60;;;;;;;;;;768392;77;26333;-71
2022/04/08 00:32:35;;;;;;;3.15;2.95;;;;;;;;;;768524;77;26185;-69
2022/04/08 00:33:39;;;;;;;2.77;2.67;;;;;;;;;;756833;78;26269;-69
2022/04/08 00:34:44;;;;;;;2.98;2.77;;;;;;;;;;757065;78;26317;-71
2022/04/08 00:41:24;;;;;;;2.87;2.62;;;;;;;;;;743239;80;26655;-69
2022/04/08 00:42:29;;;;;;;2.75;2.55;;;;;;;;;;742998;79;26276;-70
2022/04/08 00:43:47;;;;;;;2.90;2.70;;;;;;;;;;743102;80;26265;-70
2022/04/08 00:44:51;;;;;;;2.75;2.55;;;;;;;;;;743064;79;26334;-69
2022/04/08 00:45:54;;;;;;;2.80;2.60;;;;;;;;;;743063;80;26271;-70
2022/04/08 00:46:58;;;;;;;2.65;2.55;;;;;;;;;;743034;80;26764;-70
2022/04/08 00:51:55;;;;;;;2.60;2.40;;;;;;;;;;756378;78;26263;-73
2022/04/08 00:53:02;;;;;;;2.50;2.40;;;;;;;;;;756231;78;26320;-71
2022/04/08 01:06:39;;;;;;;2.80;2.60;;;;;;;;;;755805;78;26199;-69
2022/04/08 01:23:58;;;;;;;2.62;2.45;;;;;;;;;;747930;79;26191;-70
2022/04/08 01:25:04;;;;;;;2.60;2.50;;;;;;;;;;761676;78;26274;-69
2022/04/08 01:26:09;;;;;;;2.85;2.65;;;;;;;;;;745728;79;26718;-69
2022/04/08 01:27:13;;;;;;;3.17;2.90;;;;;;;;;;763584;77;26251;-69
2022/04/08 01:32:16;;;;;;;2.95;2.75;;;;;;;;;;749817;79;26251;-70
2022/04/08 01:33:19;;;;;;;2.70;2.50;;;;;;;;;;763774;77;26260;-70
2022/04/08 01:34:26;;;;;;;2.87;2.67;;;;;;;;;;762015;78;26244;-72
2022/04/08 01:41:07;;;;;;;2.65;2.45;;;;;;;;;;747827;79;26203;-70
2022/04/08 01:42:14;;;;;;;2.80;2.70;;;;;;;;;;747666;79;26279;-71
2022/04/08 01:43:17;;;;;;;3.17;2.62;;;;;;;;;;751195;79;26760;-70
2022/04/08 01:44:22;;;;;;;2.80;2.60;;;;;;;;;;748475;79;26805;-70
2022/04/08 02:06:14;;;;;;;2.83;2.62;;;;;;;;;;751443;79;26193;-71
2022/04/08 02:12:56;;;;;;;2.85;2.65;;;;;;;;;;777954;76;26695;-72
2022/04/08 02:14:00;;;;;;;3.00;2.80;;;;;;;;;;778805;76;26767;-70
2022/04/08 02:15:03;;;;;;;2.60;2.50;;;;;;;;;;778969;76;26243;-70
2022/04/08 02:16:06;;;;;;;2.75;2.55;;;;;;;;;;777609;76;26349;-71
2022/04/08 02:17:09;;;;;;;2.83;2.62;;;;;;;;;;778837;76;26219;-69
2022/04/08 02:20:31;;;;;;;3.00;2.75;;;;;;;;;;761965;78;26269;-69
2022/04/08 02:21:34;;;;;;;2.90;2.70;;;;;;;;;;761771;78;26261;-71
2022/04/08 02:22:38;;;;;;;2.80;2.60;;;;;;;;;;761913;78;26267;-73
2022/04/08 02:23:42;;;;;;;2.80;2.65;;;;;;;;;;762003;78;26257;-70
2022/04/08 02:24:46;;;;;;;2.67;2.50;;;;;;;;;;761505;78;26261;-69
2022/04/08 02:25:50;;;;;;;2.60;2.50;;;;;;;;;;761526;78;26266;-70
2022/04/08 02:26:53;;;;;;;2.72;2.60;;;;;;;;;;761508;78;26312;-70
2022/04/08 02:29:53;;;;;;;2.60;2.40;;;;;;;;;;759370;78;26183;-69
2022/04/08 02:30:57;;;;;;;2.80;2.60;;;;;;;;;;759274;78;26258;-71
2022/04/08 02:32:00;;;;;;;2.90;2.70;;;;;;;;;;759233;78;26319;-70
2022/04/08 02:40:45;;;;;;;2.35;2.25;;;;;;;;;;742655;80;26353;-69
2022/04/08 02:41:49;;;;;;;2.98;2.87;;;;;;;;;;741292;80;26803;-70
2022/04/08 02:42:53;;;;;;;2.62;2.50;;;;;;;;;;743242;79;26273;-70
2022/04/08 02:43:55;;;;;;;3.50;3.25;;;;;;;;;;741250;80;26287;-70
2022/04/08 02:44:59;;;;;;;5.20;4.67;;;;;;;;;;742832;79;26276;-69
2022/04/08 02:46:03;;;;;;;4.85;4.45;;;;;;;;;;741317;77;26660;-71
2022/04/08 02:47:07;;;;;;;4.60;4.20;;;;;;;;;;762624;77;26248;-71
2022/04/08 02:50:14;;;;;;;3.08;2.87;;;;;;;;;;778643;76;26274;-70
2022/04/08 02:51:16;;;;;;;2.60;2.40;;;;;;;;;;778498;76;26313;-70
2022/04/08 02:52:19;;;;;;;2.40;2.15;;;;;;;;;;778518;76;26232;-69
2022/04/08 02:53:23;;;;;;;2.80;2.60;;;;;;;;;;778479;76;26219;-70
2022/04/08 02:54:26;;;;;;;3.20;2.58;;;;;;;;;;778749;76;26334;-70
2022/04/08 02:55:29;;;;;;;2.62;2.42;;;;;;;;;;778672;76;26297;-69
2022/04/08 02:56:32;;;;;;;3.65;2.92;;;;;;;;;;778645;76;26218;-71
2022/04/08 03:01:29;;;;;;;5.15;2.35;;;;;;;;;;780545;76;26604;-70
2022/04/08 03:02:31;;;;;;;3.35;3.02;;;;;;;;;;788460;75;26318;-71
2022/04/08 03:03:36;;;;;;;2.27;2.17;;;;;;;;;;787858;75;26299;-70
2022/04/08 03:04:38;;;;;;;2.40;2.27;;;;;;;;;;787919;75;26238;-69
2022/04/08 03:05:41;;;;;;;2.70;2.30;;;;;;;;;;787883;75;26233;-69
2022/04/08 03:06:44;;;;;;;2.60;2.40;;;;;;;;;;787782;75;26695;-70
2022/04/08 03:11:16;;;;;;;3.20;2.00;;;;;;;;;;765859;77;26260;-70
2022/04/08 03:12:20;;;;;;;2.15;2.05;;;;;;;;;;766270;77;26275;-71
2022/04/08 03:13:25;;;;;;;2.27;2.00;;;;;;;;;;767448;77;26345;-71
2022/04/08 03:14:31;;;;;;;2.17;2.05;;;;;;;;;;767452;77;26259;-69
2022/04/08 03:15:33;;;;;;;2.22;2.12;;;;;;;;;;767501;77;26260;-70
2022/04/08 03:16:39;;;;;;;2.55;2.35;;;;;;;;;;767828;77;26681;-68
2022/04/08 03:20:01;;;;;;;2.55;2.35;;;;;;;;;;767954;77;26317;-70
2022/04/08 03:25:06;;;;;;;2.27;2.10;;;;;;;;;;735096;80;26296;-71
2022/04/08 03:26:09;;;;;;;1.98;1.87;;;;;;;;;;734996;80;26742;-68
2022/04/08 03:31:06;;;;;;;2.67;1.98;;;;;;;;;;754075;79;26674;-70
2022/04/08 03:32:09;;;;;;;2.33;2.15;;;;;;;;;;762892;77;26292;-70
2022/04/08 03:33:13;;;;;;;2.00;1.90;;;;;;;;;;762552;78;26715;-69
2022/04/08 03:34:16;;;;;;;2.30;2.10;;;;;;;;;;762512;78;26702;-69
2022/04/08 03:35:20;;;;;;;4.37;3.72;;;;;;;;;;762543;78;26232;-70
2022/04/08 03:36:23;;;;;;;3.98;3.08;;;;;;;;;;762691;78;26397;-70
2022/04/08 03:39:41;;;;;;;4.80;3.62;;;;;;;;;;792270;75;26223;-71
2022/04/08 03:40:44;;;;;;;3.75;3.42;;;;;;;;;;793368;75;26231;-70
2022/04/08 03:41:48;;;;;;;3.90;3.50;;;;;;;;;;792639;74;26236;-70
2022/04/08 03:42:51;;;;;;;3.27;2.98;;;;;;;;;;793482;75;26223;-69
2022/04/08 03:43:54;;;;;;;3.10;2.80;;;;;;;;;;793458;74;26266;-69
2022/04/08 03:44:57;;;;;;;3.15;2.90;;;;;;;;;;793636;75;26643;-71
2022/04/08 03:46:01;;;;;;;2.70;2.50;;;;;;;;;;793805;75;26211;-72
2022/04/08 03:49:11;;;;;;;2.60;2.40;;;;;;;;;;793930;75;26230;-70
2022/04/08 03:50:08;;;;;;;2.87;2.60;;;;;;;;;;779353;75;26231;-69
2022/04/08 03:51:13;;;;;;;2.80;2.60;;;;;;;;;;781329;76;26699;-69
2022/04/08 03:52:16;;;;;;;3.37;3.05;;;;;;;;;;781264;76;26231;-69
2022/04/08 03:53:30;;;;;;;3.55;2.70;;;;;;;;;;781010;75;26317;-70
2022/04/08 03:54:33;;;;;;;2.87;2.67;;;;;;;;;;781155;76;26227;-71
2022/04/08 03:55:36;;;;;;;2.33;2.12;;;;;;;;;;781007;75;26696;-69
2022/04/08 04:02:28;;;;;;;1.80;1.70;;;;;;;;;;791882;75;26210;-72
2022/04/08 04:03:32;;;;;;;1.77;1.67;;;;;;;;;;791505;75;26276;-70
2022/04/08 04:04:35;;;;;;;4.17;2.08;;;;;;;;;;791998;75;26666;-70
2022/04/08 04:05:38;;;;;;;2.27;1.82;;;;;;;;;;792010;75;26291;-70
2022/04/08 04:13:52;;;;;;;2.20;2.02;;;;;;;;;;789955;75;26220;-70
2022/04/08 04:14:56;;;;;;;2.02;1.80;;;;;;;;;;789789;75;26281;-69
2022/04/08 04:15:59;;;;;;;2.22;2.12;;;;;;;;;;789762;75;26236;-70
2022/04/08 04:19:35;;;;;;;2.40;2.25;;;;;;;;;;791024;75;26201;-71
2022/04/08 04:20:38;;;;;;;2.60;2.40;;;;;;;;;;791011;75;26233;-72
2022/04/08 04:21:42;;;;;;;2.33;2.12;;;;;;;;;;791283;75;26243;-70
2022/04/08 04:22:47;;;;;;;2.40;2.20;;;;;;;;;;790989;75;26233;-70
2022/04/08 04:23:51;;;;;;;2.00;1.90;;;;;;;;;;790751;75;26306;-69
2022/04/08 04:24:55;;;;;;;1.85;1.75;;;;;;;;;;780684;76;26251;-71
2022/04/08 04:25:58;;;;;;;2.10;1.90;;;;;;;;;;768177;77;26249;-70
2022/04/08 04:29:27;;;;;;;2.00;1.90;;;;;;;;;;767119;77;26626;-69
2022/04/08 04:30:30;;;;;;;2.45;1.95;;;;;;;;;;778787;75;26288;-71
2022/04/08 04:31:34;;;;;;;2.27;2.17;;;;;;;;;;778414;76;26227;-70
2022/04/08 04:32:37;;;;;;;8.35;7.65;;;;;;;;;;778326;76;26312;-70
2022/04/08 04:33:39;;;;;;;4.80;4.37;;;;;;;;;;778344;76;26680;-70
2022/04/08 04:34:43;;;;;;;2.95;2.70;;;;;;;;;;778393;76;26707;-73
2022/04/08 04:35:48;;;;;;;2.25;2.15;;;;;;;;;;778360;76;26230;-70
2022/04/08 04:38:50;;;;;;;2.30;2.10;;;;;;;;;;774004;76;26625;-70
2022/04/08 04:39:52;;;;;;;2.80;2.30;;;;;;;;;;773820;76;26324;-71
2022/04/08 04:40:55;;;;;;;2.02;1.92;;;;;;;;;;761261;78;26255;-71
2022/04/08 04:41:59;;;;;;;2.30;2.10;;;;;;;;;;772930;76;26261;-70
2022/04/08 04:43:02;;;;;;;2.17;2.08;;;;;;;;;;776296;76;26688;-70
2022/04/08 04:44:06;;;;;;;2.60;2.40;;;;;;;;;;776236;76;26250;-71
2022/04/08 04:45:10;;;;;;;2.37;2.05;;;;;;;;;;776280;76;26239;-70
2022/04/08 04:46:14;;;;;;;2.40;1.67;;;;;;;;;;776301;76;26259;-71
2022/04/08 04:47:18;;;;;;;2.33;2.12;;;;;;;;;;776326;76;26368;-71
2022/04/08 04:48:22;;;;;;;2.40;2.20;;;;;;;;;;776233;76;26763;-71
2022/04/08 04:49:25;;;;;;;2.08;1.90;;;;;;;;;;776291;76;26318;-72
2022/04/08 04:50:29;;;;;;;2.45;2.25;;;;;;;;;;776299;76;26340;-76
2022/04/08 04:51:32;;;;;;;2.20;2.10;;;;;;;;;;776249;76;26305;-75
2022/04/08 04:52:36;;;;;;;3.10;2.40;;;;;;;;;;776252;76;26708;-74
2022/04/08 04:53:38;;;;;;;2.20;2.00;;;;;;;;;;776319;76;26712;-74
2022/04/08 04:54:43;;;;;;;2.70;2.50;;;;;;;;;;776175;76;26259;-74
2022/04/08 05:02:56;;;;;;;3.27;3.08;;;;;;;;;;776389;76;26565;-73
2022/04/08 05:04:00;;;;;;;3.15;2.85;;;;;;;;;;776266;76;26247;-73
2022/04/08 05:05:04;;;;;;;2.55;2.45;;;;;;;;;;776332;76;26672;-73
2022/04/08 05:06:07;;;;;;;2.65;2.45;;;;;;;;;;776281;76;26255;-70
2022/04/08 05:09:09;;;;;;;2.40;2.20;;;;;;;;;;762576;78;26243;-71
2022/04/08 05:10:12;;;;;;;2.37;2.27;;;;;;;;;;749140;79;26652;-71
2022/04/08 05:11:16;;;;;;;3.37;3.08;;;;;;;;;;750055;79;26249;-70
2022/04/08 05:12:19;;;;;;;4.50;4.10;;;;;;;;;;747018;79;26347;-72
2022/04/08 05:13:22;;;;;;;4.33;4.03;;;;;;;;;;733615;80;26341;-72
2022/04/08 05:14:27;;;;;;;3.98;3.60;;;;;;;;;;752685;78;26259;-71
2022/04/08 05:15:38;;;;;;;3.30;3.00;;;;;;;;;;762634;78;26402;-71
2022/04/08 05:18:37;;;;;;;2.90;2.70;;;;;;;;;;777050;76;26226;-71
2022/04/08 05:19:40;;;;;;;4.65;3.02;;;;;;;;;;777291;76;26233;-72
2022/04/08 05:20:46;;;;;;;2.83;2.70;;;;;;;;;;775684;76;26237;-72
2022/04/08 05:21:52;;;;;;;2.98;2.77;;;;;;;;;;775881;76;26315;-71
2022/04/08 05:22:55;;;;;;;3.27;2.80;;;;;;;;;;776936;76;26315;-71
2022/04/08 05:23:59;;;;;;;3.40;3.15;;;;;;;;;;775720;76;26299;-70
2022/04/08 05:25:02;;;;;;;3.30;3.10;;;;;;;;;;775844;76;26249;-72
2022/04/08 05:30:02;;;;;;;4.40;4.00;;;;;;;;;;752677;79;26241;-72
2022/04/08 05:31:06;;;;;;;3.42;3.20;;;;;;;;;;762854;78;26262;-72
2022/04/08 05:32:13;;;;;;;3.33;3.13;;;;;;;;;;739707;80;26782;-75
2022/04/08 05:33:17;;;;;;;3.50;3.17;;;;;;;;;;754987;77;27045;-73
2022/04/08 05:34:20;;;;;;;3.97;3.20;;;;;;;;;;775987;76;26429;-73
2022/04/08 05:35:26;;;;;;;3.47;2.90;;;;;;;;;;775714;76;26900;-73
2022/04/08 05:39:59;;;;;;;4.63;3.17;;;;;;;;;;757850;78;26349;-72
2022/04/08 05:41:01;;;;;;;5.20;3.10;;;;;;;;;;757495;78;26600;-72
2022/04/08 05:42:05;;;;;;;3.60;3.30;;;;;;;;;;757605;78;26565;-71
2022/04/08 05:43:08;;;;;;;2.60;2.40;;;;;;;;;;757509;78;26421;-73
2022/04/08 05:44:11;;;;;;;3.13;2.93;;;;;;;;;;757638;78;26596;-76
2022/04/08 05:45:18;;;;;;;3.30;3.00;;;;;;;;;;757470;78;26587;-73
2022/04/08 05:50:24;;;;;;;2.87;2.77;;;;;;;;;;777161;76;26492;-72
2022/04/08 05:51:29;;;;;;;3.00;2.80;;;;;;;;;;777384;75;26534;-72
2022/04/08 05:52:34;;;;;;;2.83;2.67;;;;;;;;;;770610;75;26424;-74
2022/04/08 05:53:37;;;;;;;3.33;3.10;;;;;;;;;;768592;77;26894;-74
2022/04/08 06:01:53;;;;;;;2.50;2.40;;;;;;;;;;767193;77;26486;-74
2022/04/08 06:02:58;;;;;;;2.60;2.50;;;;;;;;;;775295;76;26501;-72
2022/04/08 06:04:01;;;;;;;2.73;2.53;;;;;;;;;;774814;76;27112;-73
2022/04/08 06:05:05;;;;;;;2.97;2.77;;;;;;;;;;774920;76;26875;-72
2022/04/08 06:08:23;;;;;;;3.10;2.90;;;;;;;;;;774962;76;27017;-73
2022/04/08 06:09:26;;;;;;;3.00;2.80;;;;;;;;;;755815;78;26556;-73
2022/04/08 06:10:30;;;;;;;2.90;2.70;;;;;;;;;;756749;78;27082;-75
2022/04/08 06:11:34;;;;;;;3.03;2.83;;;;;;;;;;756854;78;26550;-74
2022/04/08 06:12:39;;;;;;;3.60;3.30;;;;;;;;;;756433;78;26666;-74
2022/04/08 06:13:42;;;;;;;5.70;3.07;;;;;;;;;;756421;78;26720;-72
2022/04/08 06:14:47;;;;;;;2.87;2.67;;;;;;;;;;756344;78;26721;-74
2022/04/08 06:18:07;;;;;;;2.83;2.60;;;;;;;;;;756122;78;27073;-73
2022/04/08 06:19:10;;;;;;;3.20;3.00;;;;;;;;;;771625;76;26766;-73
2022/04/08 06:20:16;;;;;;;2.90;2.70;;;;;;;;;;756327;78;26777;-72
2022/04/08 06:21:18;;;;;;;2.90;2.70;;;;;;;;;;762816;78;26843;-72
2022/04/08 06:22:21;;;;;;;3.33;3.03;;;;;;;;;;753549;78;26796;-73
2022/04/08 06:23:25;;;;;;;3.03;2.83;;;;;;;;;;775308;76;26764;-73
2022/04/08 06:24:30;;;;;;;3.67;2.70;;;;;;;;;;778858;75;26910;-74
2022/04/08 06:25:33;;;;;;;2.70;2.60;;;;;;;;;;775474;76;27407;-72
2022/04/08 06:28:45;;;;;;;2.80;2.60;;;;;;;;;;739998;80;27510;-70
2022/04/08 06:29:50;;;;;;;2.80;2.60;;;;;;;;;;754051;78;27494;-73
2022/04/08 06:38:27;;;;;;;2.93;2.70;;;;;;;;;;751246;79;26913;-71
2022/04/08 06:39:31;;;;;;;3.40;3.10;;;;;;;;;;739658;80;26996;-71
2022/04/08 06:41:43;;;;;;;3.77;3.47;;;;;;;;;;743494;79;26969;-73
2022/04/08 06:42:46;;;;;;;4.27;3.97;;;;;;;;;;750676;79;27025;-73
2022/04/08 06:43:49;;;;;;;3.93;3.73;;;;;;;;;;737969;80;26974;-74
2022/04/08 06:44:52;;;;;;;3.43;3.13;;;;;;;;;;737837;80;27035;-73
2022/04/08 06:45:55;;;;;;;3.30;3.00;;;;;;;;;;754663;78;27033;-72
2022/04/08 06:48:45;;;;;;;3.00;2.90;;;;;;;;;;764758;77;27403;-73
2022/04/08 06:49:48;;;;;;;3.57;3.27;;;;;;;;;;764736;77;27427;-74
2022/04/08 06:50:50;;;;;;;3.40;3.10;;;;;;;;;;764935;77;27031;-73
2022/04/08 06:51:58;;;;;;;3.03;2.83;;;;;;;;;;766164;77;26942;-73
2022/04/08 06:53:02;;;;;;;3.53;3.23;;;;;;;;;;765857;77;26950;-74
2022/04/08 07:00:35;;;;;;;2.70;2.50;;;;;;;;;;773927;76;26920;-73
2022/04/08 07:01:38;;;;;;;3.10;2.90;;;;;;;;;;774370;76;26976;-73
2022/04/08 07:02:41;;;;;;;3.10;2.90;;;;;;;;;;774376;76;27013;-75
2022/04/08 07:03:44;;;;;;;3.20;3.00;;;;;;;;;;774592;76;26927;-74
2022/04/08 07:04:50;;;;;;;3.03;2.83;;;;;;;;;;774569;76;26918;-74
2022/04/08 07:09:21;;;;;;;3.03;2.83;;;;;;;;;;765979;77;27398;-74
2022/04/08 07:10:24;;;;;;;3.27;3.07;;;;;;;;;;765854;77;27377;-72
2022/04/08 07:11:27;;;;;;;3.13;2.93;;;;;;;;;;769311;77;26943;-72
2022/04/08 07:12:30;;;;;;;4.83;2.77;;;;;;;;;;751291;79;27434;-71
2022/04/08 07:13:32;;;;;;;3.87;2.60;;;;;;;;;;751261;79;26883;-70
2022/04/08 07:14:36;;;;;;;2.47;2.37;;;;;;;;;;751260;79;26895;-76
2022/04/08 07:19:32;;;;;;;3.00;2.80;;;;;;;;;;792769;75;26849;-74
2022/04/08 07:20:35;;;;;;;2.80;2.60;;;;;;;;;;791640;75;27344;-77
2022/04/08 07:21:38;;;;;;;2.87;2.70;;;;;;;;;;792010;75;26976;-75
2022/04/08 07:22:41;;;;;;;3.13;2.90;;;;;;;;;;792138;75;26912;-76
2022/04/08 07:23:44;;;;;;;2.93;2.73;;;;;;;;;;792102;75;26910;-76
2022/04/08 07:24:47;;;;;;;3.10;2.80;;;;;;;;;;792107;75;26979;-77
2022/04/08 07:29:19;;;;;;;4.03;2.90;;;;;;;;;;759992;78;26871;-72
2022/04/08 07:30:21;;;;;;;3.20;2.90;;;;;;;;;;759980;78;27043;-72
2022/04/08 07:31:24;;;;;;;3.27;2.97;;;;;;;;;;760189;78;27020;-73
2022/04/08 07:32:30;;;;;;;3.20;3.00;;;;;;;;;;757082;78;27015;-74
2022/04/08 07:33:33;;;;;;;3.23;2.80;;;;;;;;;;760038;78;26946;-74
2022/04/08 07:34:37;;;;;;;2.90;2.70;;;;;;;;;;760008;78;26946;-72
2022/04/08 07:37:38;;;;;;;3.10;2.90;;;;;;;;;;777767;76;26847;-72
2022/04/08 07:38:43;;;;;;;3.63;3.43;;;;;;;;;;777620;76;27383;-73
2022/04/08 07:39:47;;;;;;;6.53;3.80;;;;;;;;;;777849;76;26979;-72
2022/04/08 07:40:51;;;;;;;3.63;3.33;;;;;;;;;;778421;76;26905;-74
2022/04/08 07:41:54;;;;;;;3.10;2.90;;;;;;;;;;778369;76;26921;-76
2022/04/08 07:42:57;;;;;;;3.50;2.63;;;;;;;;;;778413;76;26979;-73
2022/04/08 07:44:00;;;;;;;2.93;2.73;;;;;;;;;;777884;76;27485;-73
2022/04/08 07:45:04;;;;;;;3.77;3.03;;;;;;;;;;777609;76;26910;-73
2022/04/08 07:47:37;;;;;;;2.80;2.60;;;;;;;;;;817053;72;27461;-72
2022/04/08 07:48:40;;;;;;;3.07;2.87;;;;;;;;;;816944;72;26964;-73
2022/04/08 07:49:43;;;;;;;4.50;2.63;;;;;;;;;;794497;74;26919;-77
2022/04/08 07:50:45;;;;;;;3.40;3.03;;;;;;;;;;817656;72;26879;-73
2022/04/08 07:51:48;;;;;;;5.83;3.13;;;;;;;;;;794341;74;26911;-73
2022/04/08 07:52:52;;;;;;;3.47;3.17;;;;;;;;;;817946;72;26940;-72
2022/04/08 07:57:55;;;;;;;3.20;2.90;;;;;;;;;;790120;75;26954;-74
2022/04/08 07:58:58;;;;;;;3.10;2.90;;;;;;;;;;773960;77;26942;-73
2022/04/08 08:00:01;;;;;;;3.00;2.73;;;;;;;;;;773687;77;27005;-73
2022/04/08 08:01:04;;;;;;;2.93;2.73;;;;;;;;;;751329;79;26957;-76
2022/04/08 08:02:07;;;;;;;4.00;3.20;;;;;;;;;;758035;78;26956;-74
2022/04/08 08:03:11;;;;;;;2.50;2.40;;;;;;;;;;757961;78;27023;-72
2022/04/08 08:04:15;;;;;;;2.90;2.70;;;;;;;;;;758318;78;26942;-72
2022/04/08 08:11:15;;;;;;;2.67;2.57;;;;;;;;;;760803;78;26861;-71
2022/04/08 08:12:20;;;;;;;4.07;2.70;;;;;;;;;;762249;76;27394;-75
2022/04/08 08:13:23;;;;;;;3.80;2.40;;;;;;;;;;760419;78;26956;-73
2022/04/08 08:14:26;;;;;;;2.70;2.50;;;;;;;;;;760461;78;27004;-74
2022/04/08 08:19:11;;;;;;;3.10;2.90;;;;;;;;;;759378;78;26876;-73
2022/04/08 08:20:15;;;;;;;2.50;2.40;;;;;;;;;;759564;78;26951;-74
2022/04/08 08:21:19;;;;;;;2.70;2.50;;;;;;;;;;759984;78;26944;-71
2022/04/08 08:22:22;;;;;;;2.97;2.77;;;;;;;;;;760245;78;26986;-72
2022/04/08 08:23:27;;;;;;;2.97;2.70;;;;;;;;;;760055;78;26943;-74
2022/04/08 08:24:32;;;;;;;3.20;2.90;;;;;;;;;;759896;78;27421;-73
2022/04/08 08:27:50;;;;;;;3.50;3.20;;;;;;;;;;759362;78;26945;-71
2022/04/08 08:28:53;;;;;;;4.40;2.50;;;;;;;;;;759820;78;26877;-73
2022/04/08 08:29:57;;;;;;;3.90;3.60;;;;;;;;;;759778;78;26951;-73
2022/04/08 08:31:02;;;;;;;4.03;3.37;;;;;;;;;;759718;78;26876;-73
2022/04/08 08:32:05;;;;;;;3.47;3.17;;;;;;;;;;759537;78;26867;-72
2022/04/08 08:33:10;;;;;;;3.00;2.80;;;;;;;;;;759785;78;27351;-72
2022/04/08 08:34:16;;;;;;;2.73;2.53;;;;;;;;;;758992;78;26935;-72
2022/04/08 08:38:51;;;;;;;2.70;2.60;;;;;;;;;;776280;76;26904;-72
2022/04/08 08:39:56;;;;;;;3.23;3.03;;;;;;;;;;783335;76;27339;-73
2022/04/08 08:41:02;;;;;;;2.83;2.63;;;;;;;;;;773145;76;26956;-72
2022/04/08 08:42:06;;;;;;;2.80;2.60;;;;;;;;;;780743;76;26976;-73
2022/04/08 08:43:13;;;;;;;2.87;2.67;;;;;;;;;;772807;77;26994;-71
2022/04/08 08:44:19;;;;;;;2.70;2.50;;;;;;;;;;780958;76;26911;-72
2022/04/08 08:48:51;;;;;;;3.03;2.80;;;;;;;;;;790374;75;26933;-73
2022/04/08 08:49:56;;;;;;;3.60;2.70;;;;;;;;;;789695;75;26934;-72
2022/04/08 08:51:16;;;;;;;3.63;2.73;;;;;;;;;;789558;75;26988;-71
2022/04/08 08:52:07;;;;;;;3.40;3.10;;;;;;;;;;780807;75;27463;-72
2022/04/08 09:00:32;;;;;;;3.90;3.47;;;;;;;;;;768783;75;26928;-72
2022/04/08 09:01:34;;;;;;;4.27;3.97;;;;;;;;;;768875;77;26924;-72
2022/04/08 09:02:38;;;;;;;3.67;3.30;;;;;;;;;;768734;77;27000;-72
2022/04/08 09:03:44;;;;;;;3.33;3.03;;;;;;;;;;754304;78;26891;-72
2022/04/08 09:08:04;;;;;;;3.20;3.00;;;;;;;;;;783651;75;27329;-72
2022/04/08 09:09:11;;;;;;;3.20;3.00;;;;;;;;;;769585;77;26945;-72
2022/04/08 09:10:12;;;;;;;2.73;2.53;;;;;;;;;;790248;75;26931;-71
2022/04/08 09:11:16;;;;;;;2.90;2.73;;;;;;;;;;790437;75;26934;-72
2022/04/08 09:12:19;;;;;;;4.20;2.77;;;;;;;;;;767310;77;27076;-72
2022/04/08 09:13:23;;;;;;;3.07;2.87;;;;;;;;;;770204;77;26979;-72
2022/04/08 09:14:28;;;;;;;3.10;2.90;;;;;;;;;;783573;75;26932;-73
2022/04/08 09:17:40;;;;;;;2.63;2.47;;;;;;;;;;788934;75;26946;-72
2022/04/08 09:18:48;;;;;;;2.50;2.40;;;;;;;;;;789230;75;26928;-72
2022/04/08 09:19:52;;;;;;;2.37;2.23;;;;;;;;;;789173;75;26913;-71
2022/04/08 09:20:58;;;;;;;3.10;2.83;;;;;;;;;;789227;75;27407;-73
2022/04/08 09:22:04;;;;;;;3.10;2.90;;;;;;;;;;788557;75;27487;-72
2022/04/08 09:23:08;;;;;;;2.83;2.63;;;;;;;;;;788734;75;26997;-72
2022/04/08 09:24:14;;;;;;;3.20;2.90;;;;;;;;;;788951;75;26983;-72
2022/04/08 09:29:16;;;;;;;3.67;2.90;;;;;;;;;;770321;77;27453;-71
2022/04/08 09:30:19;;;;;;;2.87;2.67;;;;;;;;;;770250;77;26957;-72
2022/04/08 09:31:25;;;;;;;3.10;2.90;;;;;;;;;;770454;77;27434;-72
2022/04/08 09:32:34;;;;;;;3.00;2.80;;;;;;;;;;770419;77;26956;-73
2022/04/08 09:33:52;;;;;;;3.23;2.93;;;;;;;;;;770884;77;26944;-72
2022/04/08 09:35:15;;;;;;;3.10;2.90;;;;;;;;;;768672;77;27091;-73
2022/04/08 09:36:29;;;;;;;2.83;2.63;;;;;;;;;;776002;76;27056;-73
2022/04/08 09:37:33;;;;;;;2.80;2.60;;;;;;;;;;774258;76;26958;-73
2022/04/08 09:38:40;;;;;;;3.30;3.00;;;;;;;;;;775343;76;27464;-72
2022/04/08 09:39:54;;;;;;;3.27;3.07;;;;;;;;;;775866;76;26958;-73
2022/04/08 09:41:02;;;;;;;2.70;2.50;;;;;;;;;;776865;76;26947;-72
2022/04/08 09:42:08;;;;;;;2.90;2.70;;;;;;;;;;776947;76;27012;-71
2022/04/08 09:43:12;;;;;;;3.00;2.43;;;;;;;;;;777018;76;26942;-72
2022/04/08 09:53:23;;;;;;;4.10;3.80;;;;;;;;;;776260;76;26866;-72
2022/04/08 09:58:15;;;;;;;14.63;11.97;;;;;;;;;;803728;74;27313;-72
2022/04/08 09:59:22;;;;;;;24.07;17.00;;;;;;;;;;803690;74;26996;-71
2022/04/08 10:00:27;;;;;;;14.77;10.80;;;;;;;;;;800034;74;26904;-73
2022/04/08 10:01:31;;;;;;;23.70;15.57;;;;;;;;;;803706;74;26968;-73
2022/04/08 10:02:39;;;;;;;17.70;13.33;;;;;;;;;;803404;74;26916;-71
2022/04/08 10:03:43;;;;;;;12.60;11.03;;;;;;;;;;803027;74;27400;-72
2022/04/08 10:06:32;;;;;;;11.93;9.07;;;;;;;;;;748647;79;26999;-73
2022/04/08 10:07:38;;;;;;;6.80;6.10;;;;;;;;;;748422;78;27061;-72
2022/04/08 10:08:53;;;;;;;5.57;4.27;;;;;;;;;;735252;80;27473;-72
2022/04/08 10:09:58;;;;;;;6.53;5.93;;;;;;;;;;753190;78;26978;-72
2022/04/08 10:11:02;;;;;;;5.87;5.40;;;;;;;;;;753071;79;27111;-72
2022/04/08 10:12:08;;;;;;;4.87;4.47;;;;;;;;;;753614;79;27028;-72
2022/04/08 10:13:30;;;;;;;3.80;3.50;;;;;;;;;;753012;77;26998;-73
2022/04/08 10:17:58;;;;;;;3.23;3.00;;;;;;;;;;781316;76;27494;-74
2022/04/08 10:19:06;;;;;;;3.27;2.97;;;;;;;;;;781305;76;26942;-72
2022/04/08 10:20:21;;;;;;;5.50;4.17;;;;;;;;;;781362;75;27434;-72
2022/04/08 10:21:26;;;;;;;4.00;3.70;;;;;;;;;;781097;76;27003;-72
2022/04/08 10:22:28;;;;;;;3.83;3.53;;;;;;;;;;781127;76;26931;-71
2022/04/08 10:23:38;;;;;;;3.60;3.20;;;;;;;;;;781035;76;27074;-73
2022/04/08 10:28:13;;;;;;;2.50;2.40;;;;;;;;;;766766;77;27413;-73
2022/04/08 10:29:16;;;;;;;2.60;2.40;;;;;;;;;;767306;77;26936;-72
2022/04/08 10:30:24;;;;;;;6.00;2.37;;;;;;;;;;767521;77;27372;-73
2022/04/08 10:31:27;;;;;;;4.17;2.20;;;;;;;;;;767212;77;26935;-72
2022/04/08 10:32:43;;;;;;;2.70;2.30;;;;;;;;;;767597;77;26945;-72
2022/04/08 10:33:47;;;;;;;2.43;2.27;;;;;;;;;;766457;76;26936;-72
2022/04/08 10:38:20;;;;;;;2.40;2.30;;;;;;;;;;793339;75;26816;-72
2022/04/08 10:39:26;;;;;;;2.73;2.53;;;;;;;;;;793712;74;26939;-71
2022/04/08 10:40:30;;;;;;;2.93;2.73;;;;;;;;;;793886;75;27017;-72
2022/04/08 10:41:35;;;;;;;2.87;2.67;;;;;;;;;;793941;75;26883;-73
2022/04/08 10:42:38;;;;;;;2.57;2.37;;;;;;;;;;792047;74;26897;-73
2022/04/08 10:47:19;;;;;;;2.43;2.33;;;;;;;;;;792492;75;26841;-73
2022/04/08 10:48:25;;;;;;;2.63;2.53;;;;;;;;;;792352;75;26846;-72
2022/04/08 10:49:30;;;;;;;2.60;2.40;;;;;;;;;;792214;73;26859;-71
2022/04/08 10:50:34;;;;;;;2.53;2.43;;;;;;;;;;792739;75;26895;-72
2022/04/08 10:51:40;;;;;;;2.40;2.20;;;;;;;;;;792717;75;27334;-74
2022/04/08 10:52:45;;;;;;;2.73;2.53;;;;;;;;;;792679;75;26830;-73
2022/04/08 10:58:02;;;;;;;2.33;2.13;;;;;;;;;;791742;75;26832;-72
2022/04/08 10:59:05;;;;;;;2.87;2.67;;;;;;;;;;791574;75;26897;-73
2022/04/08 11:00:11;;;;;;;3.00;2.60;;;;;;;;;;788092;75;26850;-72
2022/04/08 11:01:18;;;;;;;2.50;2.30;;;;;;;;;;780033;76;27035;-72
2022/04/08 11:02:22;;;;;;;2.60;2.40;;;;;;;;;;779647;75;26954;-71
2022/04/08 11:03:28;;;;;;;2.30;2.20;;;;;;;;;;791538;75;26850;-72
2022/04/08 11:06:39;;;;;;;2.40;2.17;;;;;;;;;;767244;77;26897;-72
2022/04/08 11:07:44;;;;;;;2.53;2.37;;;;;;;;;;766020;77;26950;-71
2022/04/08 11:08:47;;;;;;;2.43;2.27;;;;;;;;;;766933;77;27016;-73
2022/04/08 11:09:57;;;;;;;2.50;2.27;;;;;;;;;;766916;77;27434;-72
2022/04/08 11:11:01;;;;;;;2.40;2.20;;;;;;;;;;766966;77;26939;-72
2022/04/08 11:12:06;;;;;;;2.77;2.57;;;;;;;;;;766883;77;26946;-72
2022/04/08 11:13:13;;;;;;;2.50;2.30;;;;;;;;;;766936;77;26939;-72
2022/04/08 11:16:03;;;;;;;2.93;2.70;;;;;;;;;;781066;76;26797;-72
2022/04/08 11:17:09;;;;;;;2.63;2.43;;;;;;;;;;780948;76;27001;-72
2022/04/08 11:18:12;;;;;;;2.23;2.00;;;;;;;;;;780177;75;26869;-72
2022/04/08 11:19:22;;;;;;;2.90;2.10;;;;;;;;;;780937;76;26923;-72
2022/04/08 11:25:43;;;;;;;2.20;2.07;;;;;;;;;;791870;73;27031;-72
2022/04/08 11:26:53;;;;;;;2.07;1.90;;;;;;;;;;791236;75;26936;-73
2022/04/08 11:27:59;;;;;;;2.03;1.93;;;;;;;;;;791484;75;26991;-71
2022/04/08 11:29:11;;;;;;;2.20;2.10;;;;;;;;;;791288;75;26934;-72